Terminal Aerodrome Forecast
Issued by NWS

Home | Current Version | Previous Version | Text Only | Print | Product List | Glossary On
Versions: 1 2 3 4 5 6 7 8 9 10 11 12 13 14
132
FTUS45 KFGZ 310325 AAA
TAFPGA
TAF AMD
KPGA 310325Z 3103/3124 23010G15KT P6SM VCSH FEW060 BKN110
      TEMPO 3103/3106 VRB20G30KT 5SM -TSRA SCT045 BKN090CB
     FM310700 VRB06KT P6SM BKN100
     FM311800 31007KT P6SM SCT110 BKN130 PROB30 3120/3124 VRB15G25KT
      -TSRA SCT060 BKN100CB=

USA.gov is the U.S. government's official web portal to all federal, state and local government web resources and services.